Time;durP1;ratioP1;P1;durP2;ratioP2;P2;SDS_P1;SDS_P2;PMS_P1;PMS_P2;Temp;Humidity;BMP_temperature;BMP_pressure;BME280_temperature;BME280_humidity;BME280_pressure;Samples;Min_cycle;Max_cycle;Signal;HPM_P1;HPM_P2
2023/10/21 00:00:27;;;;;;;1.60;1.20;;;13.50;99.90;;;;;;4993826;28;20521;-71
2023/10/21 00:02:52;;;;;;;1.33;0.90;;;13.60;99.90;;;;;;4993353;28;20324;-71
2023/10/21 00:05:18;;;;;;;0.90;0.70;;;13.60;99.90;;;;;;4994033;28;20420;-71
2023/10/21 00:07:43;;;;;;;1.90;1.23;;;13.60;99.90;;;;;;4975959;28;20214;-71
2023/10/21 00:10:09;;;;;;;1.23;1.07;;;13.70;99.90;;;;;;4993399;28;20186;-71
2023/10/21 00:12:38;;;;;;;4.97;0.90;;;13.60;99.90;;;;;;4993236;28;20193;-71
2023/10/21 00:15:07;;;;;;;1.50;0.90;;;13.50;99.90;;;;;;4993618;28;20221;-71
2023/10/21 00:17:34;;;;;;;1.07;0.97;;;13.60;99.90;;;;;;4993331;28;20495;-71
2023/10/21 00:20:00;;;;;;;2.40;0.77;;;13.80;99.90;;;;;;4993285;28;20497;-71
2023/10/21 00:22:26;;;;;;;1.00;0.60;;;14.00;99.90;;;;;;4993303;28;20450;-71
2023/10/21 00:24:52;;;;;;;0.90;0.70;;;14.20;99.90;;;;;;4993427;28;20464;-71
2023/10/21 00:27:18;;;;;;;2.60;0.80;;;14.30;99.90;;;;;;4975647;28;20431;-71
2023/10/21 00:29:44;;;;;;;0.87;0.70;;;14.40;99.90;;;;;;4993091;28;20415;-71
2023/10/21 00:32:10;;;;;;;1.70;0.80;;;14.50;99.90;;;;;;4993160;28;20179;-71
2023/10/21 00:34:38;;;;;;;1.33;0.90;;;14.50;99.90;;;;;;4993332;28;20225;-71
2023/10/21 00:37:04;;;;;;;1.80;0.87;;;14.50;99.90;;;;;;4993391;28;20426;-71
2023/10/21 00:39:34;;;;;;;1.30;0.70;;;14.60;99.90;;;;;;4993035;28;20419;-72
2023/10/21 00:42:04;;;;;;;0.90;0.70;;;14.60;99.90;;;;;;4993005;28;20492;-71
2023/10/21 00:44:29;;;;;;;0.70;0.60;;;14.60;99.90;;;;;;4993059;28;20408;-72
2023/10/21 00:46:56;;;;;;;1.73;0.80;;;14.70;99.90;;;;;;4992490;28;20431;-72
2023/10/21 00:49:21;;;;;;;1.13;1.03;;;14.60;99.90;;;;;;4992953;28;20250;-72
2023/10/21 00:51:49;;;;;;;3.00;0.90;;;14.50;99.90;;;;;;4992874;28;20414;-71
2023/10/21 00:54:16;;;;;;;1.00;0.60;;;14.50;99.90;;;;;;4993323;28;20224;-71
2023/10/21 00:56:42;;;;;;;2.13;1.00;;;14.50;99.90;;;;;;4992998;28;20407;-71
2023/10/21 00:59:10;;;;;;;1.30;0.50;;;14.50;99.90;;;;;;4992846;28;20407;-71
2023/10/21 01:01:35;;;;;;;1.40;0.90;;;14.50;99.90;;;;;;4992767;28;20889;-71
2023/10/21 01:04:02;;;;;;;1.80;1.00;;;14.50;99.90;;;;;;4975414;28;20414;-71
2023/10/21 01:06:27;;;;;;;1.67;0.70;;;14.50;99.90;;;;;;4993565;28;20181;-71
2023/10/21 01:08:53;;;;;;;1.33;0.70;;;14.40;99.90;;;;;;4992382;28;20813;-71
2023/10/21 01:11:19;;;;;;;1.00;0.80;;;14.50;99.90;;;;;;4992682;28;20515;-71
2023/10/21 01:13:45;;;;;;;1.00;0.80;;;14.40;99.90;;;;;;4993927;28;20590;-71
2023/10/21 01:16:10;;;;;;;1.10;0.60;;;14.30;99.90;;;;;;4978899;28;20653;-71
2023/10/21 01:18:38;;;;;;;1.83;0.90;;;14.30;99.90;;;;;;4996224;28;20422;-70
2023/10/21 01:21:04;;;;;;;1.03;0.70;;;14.40;99.90;;;;;;4996463;28;20162;-71
2023/10/21 01:23:31;;;;;;;0.87;0.53;;;14.50;99.90;;;;;;4994618;28;20426;-71
2023/10/21 01:25:57;;;;;;;1.47;0.80;;;14.50;99.90;;;;;;4996279;28;20417;-71
2023/10/21 01:28:23;;;;;;;0.90;0.60;;;14.50;99.90;;;;;;4996403;28;20526;-71
2023/10/21 01:30:48;;;;;;;0.80;0.67;;;14.60;99.90;;;;;;4996253;28;20172;-71
2023/10/21 01:33:14;;;;;;;1.33;0.57;;;14.60;99.90;;;;;;4996095;28;20184;-71
2023/10/21 01:35:39;;;;;;;1.03;0.80;;;14.60;99.90;;;;;;4996190;28;20203;-71
2023/10/21 01:38:05;;;;;;;1.27;0.60;;;14.60;99.90;;;;;;4996187;28;20194;-70
2023/10/21 01:40:31;;;;;;;0.90;0.50;;;14.60;99.90;;;;;;4995960;28;20179;-71
2023/10/21 01:42:56;;;;;;;1.97;0.60;;;14.60;99.90;;;;;;4996006;28;20290;-71
2023/10/21 01:45:23;;;;;;;2.07;0.60;;;14.70;99.90;;;;;;4996750;28;20213;-71
2023/10/21 01:47:48;;;;;;;0.70;0.50;;;14.70;99.90;;;;;;4996158;28;20187;-70
2023/10/21 01:50:14;;;;;;;1.13;0.60;;;14.80;99.90;;;;;;4978212;28;20469;-70
2023/10/21 01:52:40;;;;;;;1.00;0.60;;;14.80;99.90;;;;;;4995660;28;20187;-70
2023/10/21 01:55:07;;;;;;;2.33;0.57;;;14.90;99.90;;;;;;4995742;28;20538;-70
2023/10/21 01:57:32;;;;;;;1.20;0.60;;;14.80;99.90;;;;;;4995780;28;20204;-70
2023/10/21 02:00:08;;;;;;;0.93;0.60;;;14.80;99.90;;;;;;4995712;28;20910;-70
2023/10/21 02:02:38;;;;;;;0.80;0.57;;;14.80;99.90;;;;;;4978677;28;20710;-70
2023/10/21 02:05:05;;;;;;;1.30;0.60;;;14.90;99.90;;;;;;4995760;28;20494;-70
2023/10/21 02:07:35;;;;;;;0.70;0.50;;;14.90;99.90;;;;;;5027025;23;20533;-70
2023/10/21 02:10:01;;;;;;;0.90;0.50;;;14.90;99.90;;;;;;5017583;28;20448;-70
2023/10/21 02:12:29;;;;;;;2.60;0.50;;;14.80;99.90;;;;;;5017465;28;20923;-70
2023/10/21 02:14:55;;;;;;;2.20;0.50;;;14.80;99.90;;;;;;5017600;28;20174;-70
2023/10/21 02:17:21;;;;;;;1.27;0.60;;;14.80;99.90;;;;;;5014421;28;20876;-71
2023/10/21 02:19:46;;;;;;;1.43;0.50;;;14.80;99.90;;;;;;4997786;28;20167;-69
2023/10/21 02:22:12;;;;;;;0.90;0.50;;;14.90;99.90;;;;;;5013998;28;20264;-70
2023/10/21 02:24:38;;;;;;;1.00;0.57;;;14.80;99.90;;;;;;5013541;28;20171;-70
2023/10/21 02:27:04;;;;;;;1.00;0.50;;;14.90;99.90;;;;;;5013944;28;20709;-69
2023/10/21 02:29:31;;;;;;;1.60;0.60;;;14.80;99.90;;;;;;5013885;28;20176;-71
2023/10/21 02:31:57;;;;;;;2.50;0.60;;;14.70;99.90;;;;;;5013835;28;20418;-70
2023/10/21 02:34:22;;;;;;;1.17;0.77;;;14.70;99.90;;;;;;5013758;28;20828;-70
2023/10/21 02:36:48;;;;;;;0.70;0.50;;;14.70;99.90;;;;;;5013866;28;20166;-69
2023/10/21 02:39:16;;;;;;;0.70;0.50;;;14.70;99.90;;;;;;4997453;28;20688;-71
2023/10/21 02:41:41;;;;;;;1.03;0.60;;;14.70;99.90;;;;;;5015272;28;20189;-71
2023/10/21 02:44:07;;;;;;;1.03;0.60;;;14.70;99.90;;;;;;5013633;28;20463;-72
2023/10/21 02:46:32;;;;;;;1.63;0.60;;;14.60;99.90;;;;;;5013289;28;20632;-72
2023/10/21 02:48:58;;;;;;;0.80;0.50;;;14.60;99.90;;;;;;5013549;28;20201;-72
2023/10/21 02:51:24;;;;;;;0.90;0.50;;;14.60;99.90;;;;;;5013663;28;20180;-72
2023/10/21 02:53:50;;;;;;;1.30;0.60;;;14.50;99.90;;;;;;5013517;28;20960;-71
2023/10/21 02:56:15;;;;;;;0.83;0.60;;;14.40;99.90;;;;;;5013528;28;20175;-71
2023/10/21 02:58:41;;;;;;;0.80;0.50;;;14.40;99.90;;;;;;5013330;28;20195;-72
2023/10/21 03:01:18;;;;;;;1.00;0.60;;;14.40;99.90;;;;;;5013444;28;20167;-71
2023/10/21 03:03:45;;;;;;;1.10;0.60;;;14.30;99.90;;;;;;5013150;28;20174;-73
2023/10/21 03:06:12;;;;;;;1.87;0.80;;;14.20;99.90;;;;;;5013127;28;20931;-71
2023/10/21 03:08:39;;;;;;;5.90;0.90;;;14.20;99.90;;;;;;5012917;28;20443;-72
2023/10/21 03:11:06;;;;;;;1.10;0.60;;;14.10;99.90;;;;;;5013229;28;20409;-72
2023/10/21 03:13:33;;;;;;;1.33;0.80;;;14.10;99.90;;;;;;5013009;28;20442;-71
2023/10/21 03:15:59;;;;;;;1.03;0.60;;;14.10;99.90;;;;;;5013150;28;20414;-71
2023/10/21 03:18:25;;;;;;;0.90;0.60;;;14.00;99.90;;;;;;5013217;28;20808;-71
2023/10/21 03:20:52;;;;;;;1.80;0.50;;;14.00;99.90;;;;;;5013030;28;20580;-71
2023/10/21 03:23:18;;;;;;;1.00;0.67;;;14.10;99.90;;;;;;5013050;28;20491;-71
2023/10/21 03:26:00;;;;;;;1.17;0.60;;;14.00;99.90;;;;;;5013562;28;20413;-71
2023/10/21 03:28:27;;;;;;;1.37;0.50;;;13.90;99.90;;;;;;5012682;28;20431;-72
2023/10/21 03:30:57;;;;;;;0.90;0.50;;;13.90;99.90;;;;;;4995680;28;20411;-71
2023/10/21 03:33:24;;;;;;;0.70;0.50;;;14.00;99.90;;;;;;5012781;28;20445;-72
2023/10/21 03:35:57;;;;;;;0.70;0.50;;;14.00;99.90;;;;;;5012126;28;20410;-71
2023/10/21 03:38:22;;;;;;;0.83;0.50;;;14.00;99.90;;;;;;5012723;28;20434;-71
2023/10/21 03:40:58;;;;;;;0.93;0.50;;;14.00;99.90;;;;;;5012625;28;20931;-71
2023/10/21 03:43:25;;;;;;;0.80;0.40;;;13.90;99.90;;;;;;4996325;28;20175;-71
2023/10/21 03:45:51;;;;;;;0.70;0.50;;;14.00;99.90;;;;;;5012613;28;20408;-71
2023/10/21 03:48:16;;;;;;;2.70;0.57;;;14.00;99.90;;;;;;5012456;28;20492;-71
2023/10/21 03:50:42;;;;;;;1.10;0.50;;;14.00;99.90;;;;;;5012568;28;20411;-72
2023/10/21 03:53:08;;;;;;;0.80;0.50;;;14.10;99.90;;;;;;5012544;28;20192;-71
2023/10/21 03:55:33;;;;;;;1.40;0.70;;;14.10;99.90;;;;;;5013859;28;20174;-72
2023/10/21 03:57:59;;;;;;;0.80;0.50;;;14.20;99.90;;;;;;5012313;28;20578;-71
2023/10/21 04:00:24;;;;;;;0.80;0.50;;;14.10;99.90;;;;;;5012243;28;20267;-71
2023/10/21 04:02:50;;;;;;;0.80;0.50;;;14.20;99.90;;;;;;5012385;28;20178;-72
2023/10/21 04:05:17;;;;;;;0.90;0.60;;;14.10;99.90;;;;;;5012309;28;20181;-71
2023/10/21 04:07:44;;;;;;;0.80;0.50;;;14.20;99.90;;;;;;5012076;28;20357;-71
2023/10/21 04:10:10;;;;;;;0.70;0.60;;;14.20;99.90;;;;;;5012079;28;20885;-71
2023/10/21 04:12:36;;;;;;;0.80;0.50;;;14.30;99.90;;;;;;5012160;28;20503;-72
2023/10/21 04:15:02;;;;;;;1.00;0.60;;;14.40;99.90;;;;;;5012211;28;20933;-70
2023/10/21 04:17:28;;;;;;;1.10;0.50;;;14.30;99.90;;;;;;5012110;28;20476;-70
2023/10/21 04:19:53;;;;;;;0.70;0.50;;;14.30;99.90;;;;;;5012033;28;20407;-70
2023/10/21 04:22:19;;;;;;;1.20;0.80;;;14.40;99.90;;;;;;5012110;28;20171;-70
2023/10/21 04:24:45;;;;;;;0.90;0.50;;;14.40;99.90;;;;;;5013380;28;20659;-69
2023/10/21 04:27:11;;;;;;;1.67;0.50;;;14.30;99.90;;;;;;4995729;28;20258;-72
2023/10/21 04:29:37;;;;;;;1.00;0.63;;;14.40;99.90;;;;;;5011927;28;20646;-71
2023/10/21 04:32:02;;;;;;;1.00;0.50;;;14.30;99.90;;;;;;5011919;28;20462;-71
2023/10/21 04:34:28;;;;;;;1.03;0.60;;;14.30;99.90;;;;;;5011863;28;20188;-71
2023/10/21 04:36:53;;;;;;;1.60;0.53;;;14.30;99.90;;;;;;5011877;28;20228;-71
2023/10/21 04:39:19;;;;;;;1.10;0.70;;;14.30;99.90;;;;;;5011630;28;20633;-71
2023/10/21 04:41:48;;;;;;;1.53;0.60;;;14.40;99.90;;;;;;5011997;28;20171;-70
2023/10/21 04:44:13;;;;;;;1.73;0.60;;;14.50;99.90;;;;;;5011851;28;20185;-71
2023/10/21 04:46:39;;;;;;;3.20;0.83;;;14.50;99.90;;;;;;5011844;28;20411;-71
2023/10/21 04:49:05;;;;;;;0.80;0.50;;;14.50;99.90;;;;;;5015277;28;20676;-71
2023/10/21 04:51:31;;;;;;;0.90;0.50;;;14.40;99.90;;;;;;5015854;28;20250;-71
2023/10/21 04:53:57;;;;;;;0.97;0.50;;;14.60;99.90;;;;;;5015708;28;20502;-72
2023/10/21 04:56:24;;;;;;;8.50;5.43;;;14.60;99.90;;;;;;5015712;28;20168;-72
2023/10/21 04:58:50;;;;;;;1.63;0.70;;;14.60;99.90;;;;;;5015333;28;20436;-71
2023/10/21 05:01:16;;;;;;;1.07;0.60;;;14.70;99.90;;;;;;5015313;28;20949;-72
2023/10/21 05:03:43;;;;;;;0.80;0.50;;;14.70;99.90;;;;;;5015705;28;20553;-72
2023/10/21 05:06:09;;;;;;;0.90;0.60;;;14.70;99.90;;;;;;5015586;28;20697;-72
2023/10/21 05:08:34;;;;;;;1.00;0.50;;;14.60;99.90;;;;;;5015340;28;20534;-72
2023/10/21 05:11:00;;;;;;;1.33;0.70;;;14.80;99.90;;;;;;5015569;28;20515;-72
2023/10/21 05:13:25;;;;;;;0.80;0.50;;;14.70;99.90;;;;;;5015419;28;20190;-72
2023/10/21 05:15:51;;;;;;;1.53;0.50;;;14.70;99.90;;;;;;5015514;28;20179;-71
2023/10/21 05:18:17;;;;;;;1.10;0.53;;;14.80;99.90;;;;;;5015267;28;20189;-70
2023/10/21 05:20:42;;;;;;;1.10;0.57;;;14.80;99.90;;;;;;5015466;28;20201;-71
2023/10/21 05:23:08;;;;;;;0.80;0.60;;;14.90;99.90;;;;;;5014636;28;20181;-71
2023/10/21 05:25:34;;;;;;;2.07;0.70;;;14.90;99.90;;;;;;5013248;28;20186;-72
2023/10/21 05:28:00;;;;;;;3.23;0.70;;;15.00;99.90;;;;;;5005566;28;20298;-70
2023/10/21 05:30:25;;;;;;;0.80;0.60;;;14.80;99.90;;;;;;5005777;28;20420;-72
2023/10/21 05:32:51;;;;;;;1.00;0.60;;;14.80;99.90;;;;;;5005417;28;20685;-70
2023/10/21 05:35:17;;;;;;;1.47;0.60;;;14.70;99.90;;;;;;5005464;28;20183;-72
2023/10/21 05:37:43;;;;;;;1.63;0.50;;;14.70;99.90;;;;;;5005435;28;20234;-70
2023/10/21 05:40:09;;;;;;;2.80;0.80;;;14.70;99.90;;;;;;5005489;28;20461;-71
2023/10/21 05:42:35;;;;;;;1.53;0.90;;;14.60;99.90;;;;;;5005193;28;20789;-71
2023/10/21 05:45:00;;;;;;;0.90;0.60;;;14.40;99.90;;;;;;5005369;28;20504;-71
2023/10/21 05:47:26;;;;;;;0.80;0.60;;;14.50;99.90;;;;;;5005096;28;20199;-70
2023/10/21 05:49:52;;;;;;;1.63;0.60;;;14.60;99.90;;;;;;5005171;28;20607;-71
2023/10/21 05:52:18;;;;;;;1.93;0.60;;;14.60;99.90;;;;;;5005041;28;20194;-71
2023/10/21 05:54:44;;;;;;;1.17;0.90;;;14.60;99.90;;;;;;5005325;28;20936;-71
2023/10/21 05:57:10;;;;;;;1.10;0.87;;;14.70;99.90;;;;;;5004862;28;20648;-70
2023/10/21 05:59:35;;;;;;;3.13;0.90;;;14.60;99.90;;;;;;5004196;28;20195;-71
2023/10/21 06:02:01;;;;;;;1.60;0.80;;;14.50;99.90;;;;;;5006680;28;20708;-72
2023/10/21 06:04:27;;;;;;;1.03;0.70;;;14.50;99.90;;;;;;5004948;28;20199;-72
2023/10/21 06:06:55;;;;;;;0.90;0.60;;;14.40;99.90;;;;;;5005412;28;20967;-71
2023/10/21 06:09:24;;;;;;;2.33;0.80;;;14.30;99.90;;;;;;5005245;28;20236;-71
2023/10/21 06:11:53;;;;;;;2.07;1.00;;;14.30;99.90;;;;;;5004834;28;20496;-72
2023/10/21 06:14:19;;;;;;;1.57;0.80;;;14.30;99.90;;;;;;5006408;28;20549;-71
2023/10/21 06:16:45;;;;;;;3.13;0.80;;;14.40;99.90;;;;;;5014294;28;20976;-70
2023/10/21 06:19:10;;;;;;;3.13;0.80;;;14.20;99.90;;;;;;5014007;28;20620;-70
2023/10/21 06:21:37;;;;;;;1.60;0.77;;;14.20;99.90;;;;;;5014039;28;20418;-70
2023/10/21 06:24:06;;;;;;;1.97;0.60;;;14.10;99.90;;;;;;5014116;28;20433;-71
2023/10/21 06:26:32;;;;;;;1.13;1.00;;;14.10;99.90;;;;;;5013893;28;20474;-71
2023/10/21 06:28:58;;;;;;;2.83;1.00;;;14.10;99.90;;;;;;5013832;28;20441;-71
2023/10/21 06:31:24;;;;;;;1.50;1.00;;;14.10;99.90;;;;;;5014444;28;20909;-71
2023/10/21 06:33:50;;;;;;;1.50;0.80;;;14.10;99.90;;;;;;5010898;28;20592;-71
2023/10/21 06:36:17;;;;;;;1.40;0.87;;;14.20;99.90;;;;;;5007991;28;20930;-71
2023/10/21 06:38:42;;;;;;;1.90;1.20;;;14.20;99.90;;;;;;5013793;28;20434;-70
2023/10/21 06:41:10;;;;;;;1.40;0.73;;;14.20;99.90;;;;;;5013804;28;20422;-71
2023/10/21 06:43:36;;;;;;;1.20;0.70;;;14.30;99.90;;;;;;5013686;28;20182;-71
2023/10/21 06:46:02;;;;;;;1.90;0.60;;;14.30;99.90;;;;;;5013645;28;20418;-71
2023/10/21 06:48:29;;;;;;;2.13;0.80;;;14.30;99.90;;;;;;5014702;28;20878;-71
2023/10/21 06:50:55;;;;;;;1.10;0.80;;;14.30;99.90;;;;;;5013066;28;20177;-71
2023/10/21 06:53:21;;;;;;;1.40;0.80;;;14.20;99.90;;;;;;5013434;28;20823;-71
2023/10/21 06:55:48;;;;;;;1.37;1.00;;;14.20;99.90;;;;;;5013507;28;20501;-71
2023/10/21 06:58:14;;;;;;;1.20;0.80;;;14.30;99.90;;;;;;5013317;28;20471;-71
2023/10/21 07:00:41;;;;;;;2.20;1.10;;;14.30;99.90;;;;;;5009077;28;20416;-72
2023/10/21 07:03:07;;;;;;;1.53;0.77;;;14.20;99.90;;;;;;5012969;28;20425;-71
2023/10/21 07:05:33;;;;;;;1.10;0.70;;;14.20;99.90;;;;;;4996984;28;20426;-71
2023/10/21 07:07:59;;;;;;;1.10;0.77;;;14.20;99.90;;;;;;5012612;28;20449;-72
2023/10/21 07:10:26;;;;;;;1.63;0.60;;;14.20;99.90;;;;;;5013134;28;20424;-72
2023/10/21 07:12:52;;;;;;;1.10;0.60;;;14.30;99.90;;;;;;5012770;28;20195;-72
2023/10/21 07:15:19;;;;;;;1.97;0.67;;;14.40;99.90;;;;;;5011727;28;20423;-71
2023/10/21 07:17:44;;;;;;;0.93;0.57;;;14.50;99.90;;;;;;5010094;28;20190;-72
2023/10/21 07:20:11;;;;;;;0.90;0.50;;;14.50;99.90;;;;;;5012905;28;20429;-71
2023/10/21 07:22:37;;;;;;;0.80;0.57;;;14.60;99.90;;;;;;5012935;28;20190;-72
2023/10/21 07:25:02;;;;;;;0.90;0.50;;;14.60;99.90;;;;;;5012906;28;20410;-70
2023/10/21 07:27:28;;;;;;;0.90;0.70;;;14.70;99.90;;;;;;5012810;28;20194;-68
2023/10/21 07:29:56;;;;;;;0.80;0.60;;;14.90;99.90;;;;;;5014244;28;20176;-72
2023/10/21 07:32:23;;;;;;;1.00;0.60;;;14.90;99.90;;;;;;5012882;28;20203;-69
2023/10/21 07:34:49;;;;;;;1.20;0.83;;;14.90;99.90;;;;;;5012719;28;20402;-69
2023/10/21 07:37:15;;;;;;;1.10;0.60;;;15.00;99.90;;;;;;5011475;28;20430;-71
2023/10/21 07:39:41;;;;;;;1.03;0.50;;;15.10;99.90;;;;;;5011130;28;20964;-69
2023/10/21 07:42:06;;;;;;;2.10;1.17;;;15.20;99.90;;;;;;5012542;28;20200;-70
2023/10/21 07:44:32;;;;;;;3.63;0.70;;;15.30;99.90;;;;;;4995128;28;20215;-68
2023/10/21 07:46:57;;;;;;;1.03;0.60;;;15.40;99.90;;;;;;5010008;28;20264;-69
2023/10/21 07:49:24;;;;;;;1.80;0.90;;;15.50;99.90;;;;;;5001505;28;20183;-70
2023/10/21 07:51:50;;;;;;;1.17;0.80;;;15.70;99.90;;;;;;4997852;28;20177;-71
2023/10/21 07:54:16;;;;;;;1.43;0.70;;;15.80;99.90;;;;;;5012543;28;20451;-69
2023/10/21 07:56:45;;;;;;;1.03;0.50;;;15.80;99.90;;;;;;5012533;28;20966;-70
2023/10/21 07:59:11;;;;;;;1.90;0.60;;;15.90;99.90;;;;;;5006466;28;20197;-69
2023/10/21 08:01:37;;;;;;;1.53;0.87;;;16.00;99.90;;;;;;5012966;28;20410;-70
2023/10/21 08:04:04;;;;;;;1.37;0.70;;;16.00;99.90;;;;;;5012371;28;20170;-72
2023/10/21 08:06:30;;;;;;;2.03;1.20;;;16.00;99.90;;;;;;5012819;28;20417;-71
2023/10/21 08:08:55;;;;;;;2.77;1.50;;;16.00;99.90;;;;;;5012614;28;20512;-71
2023/10/21 08:11:22;;;;;;;9.93;7.93;;;16.20;99.90;;;;;;5012187;28;20426;-71
2023/10/21 08:13:47;;;;;;;4.40;4.00;;;16.00;99.90;;;;;;5012034;28;20198;-70
2023/10/21 08:16:13;;;;;;;1.70;1.30;;;16.10;99.90;;;;;;5013667;28;20412;-71
2023/10/21 08:18:43;;;;;;;1.50;1.00;;;16.10;99.90;;;;;;5011963;28;20244;-70
2023/10/21 08:21:08;;;;;;;2.90;0.83;;;16.10;99.90;;;;;;5012125;28;20171;-70
2023/10/21 08:23:34;;;;;;;3.43;3.13;;;16.20;99.90;;;;;;5011665;28;20419;-69
2023/10/21 08:26:00;;;;;;;1.77;1.50;;;16.30;99.90;;;;;;5012073;28;20196;-69
2023/10/21 08:28:26;;;;;;;2.63;1.73;;;16.10;99.90;;;;;;5011719;28;20224;-69
2023/10/21 08:30:51;;;;;;;0.97;0.70;;;16.20;99.90;;;;;;5011769;28;20578;-68
2023/10/21 08:33:17;;;;;;;1.67;1.10;;;16.20;99.90;;;;;;5003195;28;20681;-68
2023/10/21 08:35:43;;;;;;;1.10;0.70;;;16.40;99.90;;;;;;4991497;28;20178;-71
2023/10/21 08:38:09;;;;;;;1.67;1.00;;;16.30;99.90;;;;;;4992509;28;20187;-70
2023/10/21 08:40:38;;;;;;;1.20;0.60;;;16.30;99.90;;;;;;5002326;28;20422;-70
2023/10/21 08:43:05;;;;;;;1.67;0.63;;;16.40;99.90;;;;;;5007834;28;20205;-70
2023/10/21 08:45:32;;;;;;;1.17;0.70;;;16.50;99.90;;;;;;4999206;28;20505;-70
2023/10/21 08:47:58;;;;;;;2.60;1.57;;;16.50;99.90;;;;;;5011832;28;20525;-69
2023/10/21 08:50:26;;;;;;;2.37;1.00;;;16.50;99.90;;;;;;5011866;28;20411;-70
2023/10/21 08:52:55;;;;;;;1.50;0.80;;;16.70;99.90;;;;;;5011752;28;20830;-70
2023/10/21 08:55:22;;;;;;;1.63;0.70;;;16.80;99.90;;;;;;5011738;28;20406;-69
2023/10/21 08:57:48;;;;;;;1.30;1.03;;;16.70;99.90;;;;;;5017044;28;20461;-71
2023/10/21 09:00:14;;;;;;;0.90;0.60;;;16.80;99.90;;;;;;5021051;28;20438;-70
2023/10/21 09:02:40;;;;;;;0.90;0.60;;;17.00;99.90;;;;;;4993579;28;20217;-69
2023/10/21 09:05:10;;;;;;;3.27;0.70;;;17.00;99.90;;;;;;5011684;28;20417;-70
2023/10/21 09:07:46;;;;;;;1.00;0.60;;;17.10;99.90;;;;;;5011458;28;20207;-71
2023/10/21 09:10:12;;;;;;;3.97;1.00;;;17.10;99.90;;;;;;5011569;28;20429;-70
2023/10/21 09:12:38;;;;;;;1.70;0.80;;;17.20;99.90;;;;;;5011507;28;20411;-70
2023/10/21 09:15:05;;;;;;;1.20;0.60;;;17.20;99.90;;;;;;5011584;28;20403;-70
2023/10/21 09:17:39;;;;;;;1.60;0.60;;;17.10;99.90;;;;;;5011349;28;20617;-70
2023/10/21 09:20:11;;;;;;;2.30;0.70;;;17.10;99.90;;;;;;5010945;28;21003;-70
2023/10/21 09:22:37;;;;;;;2.20;0.70;;;17.10;99.90;;;;;;5011553;28;20407;-70
2023/10/21 09:25:14;;;;;;;1.30;0.70;;;17.30;99.90;;;;;;5011646;28;20498;-70
2023/10/21 09:27:41;;;;;;;1.57;0.70;;;17.40;99.90;;;;;;5011382;28;20442;-70
2023/10/21 09:30:07;;;;;;;5.20;0.70;;;17.70;99.90;;;;;;5011361;28;20925;-70
2023/10/21 09:32:33;;;;;;;2.70;0.80;;;17.50;99.90;;;;;;5011760;28;20482;-69
2023/10/21 09:35:21;;;;;;;1.87;0.80;;;17.30;99.90;;;;;;5013415;28;20925;-70
2023/10/21 09:37:50;;;;;;;1.87;0.57;;;17.50;99.90;;;;;;4999134;28;20430;-70
2023/10/21 09:40:16;;;;;;;2.00;0.70;;;17.50;99.90;;;;;;5015195;28;20403;-69
2023/10/21 09:42:42;;;;;;;1.37;0.70;;;17.60;99.90;;;;;;5015214;28;20406;-70
2023/10/21 09:45:10;;;;;;;2.10;1.00;;;17.70;99.90;;;;;;5014718;28;20446;-69
2023/10/21 09:47:40;;;;;;;2.10;0.70;;;17.80;99.90;;;;;;5014606;28;20431;-70
2023/10/21 09:50:11;;;;;;;1.70;1.00;;;18.00;99.90;;;;;;5014635;28;20403;-70
2023/10/21 09:53:04;;;;;;;2.33;1.20;;;18.30;99.90;;;;;;5014598;28;20401;-70
2023/10/21 09:55:31;;;;;;;1.90;0.70;;;18.70;99.90;;;;;;4987775;28;20416;-70
2023/10/21 09:57:58;;;;;;;2.10;0.80;;;18.70;99.90;;;;;;5014406;28;20431;-70
2023/10/21 10:00:24;;;;;;;1.80;1.20;;;18.90;99.90;;;;;;5014395;28;20403;-71
2023/10/21 10:02:53;;;;;;;1.43;0.80;;;18.70;99.90;;;;;;4997973;28;20470;-70
2023/10/21 10:05:20;;;;;;;1.90;0.90;;;18.90;99.90;;;;;;5014295;28;20418;-70
2023/10/21 10:07:48;;;;;;;3.47;0.93;;;18.90;99.90;;;;;;5015558;28;20443;-70
2023/10/21 10:10:20;;;;;;;0.97;0.57;;;19.00;99.90;;;;;;5014731;28;20423;-70
2023/10/21 10:13:06;;;;;;;2.67;0.70;;;19.00;99.90;;;;;;5014570;28;20502;-70
2023/10/21 10:15:42;;;;;;;1.03;0.70;;;19.00;99.90;;;;;;5014383;28;20407;-69
2023/10/21 10:18:09;;;;;;;3.03;0.90;;;19.10;99.90;;;;;;5014055;28;20517;-69
2023/10/21 10:20:50;;;;;;;1.00;0.50;;;18.80;99.90;;;;;;5014241;28;20407;-71
2023/10/21 10:23:19;;;;;;;1.93;0.90;;;18.60;99.90;;;;;;5014427;28;20407;-71
2023/10/21 10:25:49;;;;;;;1.87;0.60;;;18.50;99.90;;;;;;5014111;28;20423;-69
2023/10/21 10:28:25;;;;;;;1.73;0.97;;;18.60;99.90;;;;;;5013740;28;20525;-68
2023/10/21 10:30:53;;;;;;;1.63;0.73;;;18.60;99.90;;;;;;5014369;28;20410;-69
2023/10/21 10:33:24;;;;;;;2.60;0.90;;;19.00;99.90;;;;;;5013720;28;20458;-70
2023/10/21 10:35:54;;;;;;;1.43;0.80;;;19.40;99.90;;;;;;5014168;28;20403;-70
2023/10/21 10:38:26;;;;;;;1.30;0.70;;;19.60;99.90;;;;;;5013974;28;20431;-70
2023/10/21 10:41:06;;;;;;;2.23;0.70;;;19.80;99.90;;;;;;4997090;28;20411;-69
2023/10/21 10:43:38;;;;;;;1.10;0.70;;;19.90;99.90;;;;;;5013854;28;20924;-70
2023/10/21 10:46:05;;;;;;;4.87;1.13;;;20.10;99.90;;;;;;5014518;28;20423;-69
2023/10/21 10:48:31;;;;;;;3.33;0.70;;;20.00;99.90;;;;;;5013190;28;20518;-70
2023/10/21 10:51:02;;;;;;;1.20;0.53;;;19.70;99.90;;;;;;5013838;28;20469;-69
2023/10/21 10:53:27;;;;;;;1.60;0.80;;;19.10;99.90;;;;;;5012692;28;20196;-70
2023/10/21 10:55:56;;;;;;;3.80;1.00;;;19.20;99.90;;;;;;5013268;28;20418;-69
2023/10/21 10:58:26;;;;;;;1.43;0.80;;;19.40;99.90;;;;;;5013513;28;20196;-70
2023/10/21 11:00:52;;;;;;;1.10;0.63;;;19.60;99.90;;;;;;5013233;28;20411;-68
2023/10/21 11:03:28;;;;;;;1.93;1.00;;;19.70;99.90;;;;;;5013415;28;20502;-70
2023/10/21 11:05:55;;;;;;;1.60;0.93;;;19.80;99.90;;;;;;5012614;28;20434;-70
2023/10/21 11:08:22;;;;;;;4.03;0.70;;;19.80;99.90;;;;;;4996904;28;20965;-69
2023/10/21 11:10:48;;;;;;;1.93;1.00;;;19.80;99.90;;;;;;4996883;28;20426;-69
2023/10/21 11:13:13;;;;;;;2.93;1.00;;;19.80;99.90;;;;;;4996700;28;20455;-72
2023/10/21 11:15:54;;;;;;;1.17;0.63;;;19.80;99.90;;;;;;5010114;28;20408;-69
2023/10/21 11:18:21;;;;;;;1.17;0.83;;;20.10;99.70;;;;;;5014350;28;20236;-70
2023/10/21 11:20:51;;;;;;;1.30;0.60;;;20.30;99.50;;;;;;5013293;28;20447;-70
2023/10/21 11:23:23;;;;;;;2.37;0.70;;;19.90;98.70;;;;;;5013118;28;20426;-70
2023/10/21 11:25:51;;;;;;;1.00;0.60;;;20.30;98.90;;;;;;5013005;28;20411;-70
2023/10/21 11:28:18;;;;;;;1.80;0.70;;;20.40;98.30;;;;;;5012428;28;20463;-70
2023/10/21 11:30:45;;;;;;;1.30;0.60;;;20.70;98.20;;;;;;5012913;28;20918;-70
2023/10/21 11:33:11;;;;;;;1.20;0.93;;;20.30;97.80;;;;;;5012294;28;20462;-70
2023/10/21 11:35:39;;;;;;;2.30;0.80;;;20.20;98.30;;;;;;5012740;28;20411;-70
2023/10/21 11:38:05;;;;;;;1.63;0.70;;;20.20;98.30;;;;;;5012089;28;20884;-69
2023/10/21 11:40:35;;;;;;;1.70;1.10;;;19.80;98.70;;;;;;5008949;28;20487;-69
2023/10/21 11:43:01;;;;;;;1.13;0.60;;;19.70;99.90;;;;;;5012360;28;20431;-69
2023/10/21 11:45:30;;;;;;;1.57;0.60;;;19.40;99.10;;;;;;5009023;28;20411;-70
2023/10/21 11:47:58;;;;;;;1.77;0.70;;;19.40;99.90;;;;;;5012458;28;20434;-69
2023/10/21 11:50:24;;;;;;;1.20;0.60;;;20.00;98.80;;;;;;5012624;28;20418;-70
2023/10/21 11:52:51;;;;;;;2.20;0.70;;;21.50;97.30;;;;;;5012363;28;20443;-70
2023/10/21 11:55:38;;;;;;;2.07;1.00;;;22.60;95.10;;;;;;5012343;28;20414;-70
2023/10/21 12:35:38;;;;;;;2.07;0.60;;;23.60;82.30;;;;;;5013333;28;20382;-71
2023/10/21 12:40:39;;;;;;;1.70;0.83;;;22.30;87.30;;;;;;4994363;28;20388;-70
2023/10/21 12:45:46;;;;;;;4.17;0.70;;;21.40;87.00;;;;;;4993925;28;20408;-70
2023/10/21 12:48:17;;;;;;;1.63;0.80;;;21.00;90.40;;;;;;4977512;28;20776;-70
2023/10/21 12:50:49;;;;;;;1.67;0.80;;;21.10;92.10;;;;;;5011417;28;20497;-71
2023/10/21 12:53:17;;;;;;;1.57;0.80;;;20.80;91.10;;;;;;5004711;28;20446;-71
2023/10/21 12:55:43;;;;;;;1.00;0.70;;;20.70;92.50;;;;;;5002643;28;20404;-71
2023/10/21 12:58:09;;;;;;;1.40;0.70;;;20.70;92.60;;;;;;5000765;28;20428;-71
2023/10/21 13:00:35;;;;;;;1.20;0.50;;;20.80;92.40;;;;;;5011724;28;20411;-70
2023/10/21 13:03:00;;;;;;;2.10;0.80;;;20.90;91.40;;;;;;5011766;28;20265;-70
2023/10/21 13:05:26;;;;;;;1.00;0.60;;;20.40;91.10;;;;;;5011491;28;20305;-70
2023/10/21 13:07:52;;;;;;;3.20;0.87;;;20.00;91.80;;;;;;5011510;28;20678;-70
2023/10/21 13:10:18;;;;;;;1.20;0.70;;;20.00;92.00;;;;;;5015386;28;20176;-70
2023/10/21 13:12:44;;;;;;;1.93;1.03;;;20.50;92.20;;;;;;5008897;28;20179;-70
2023/10/21 13:15:12;;;;;;;1.80;0.80;;;20.10;91.10;;;;;;5012414;28;20172;-70
2023/10/21 13:17:41;;;;;;;1.57;1.00;;;20.10;91.10;;;;;;5014986;28;20279;-70
2023/10/21 13:20:16;;;;;;;1.60;0.73;;;20.20;91.60;;;;;;5015244;28;20413;-69
2023/10/21 13:22:44;;;;;;;1.67;0.80;;;20.70;93.70;;;;;;5012328;28;20412;-70
2023/10/21 13:25:10;;;;;;;1.43;0.60;;;21.80;90.80;;;;;;5015159;28;20407;-71
2023/10/21 13:27:36;;;;;;;1.50;0.70;;;23.60;88.60;;;;;;5016328;28;20433;-71
2023/10/21 13:30:10;;;;;;;1.53;0.73;;;24.80;84.20;;;;;;5016083;28;20407;-71